Time;durP1;ratioP1;P1;durP2;ratioP2;P2;SDS_P1;SDS_P2;PMS_P1;PMS_P2;Temp;Humidity;BMP_temperature;BMP_pressure;BME280_temperature;BME280_humidity;BME280_pressure;Samples;Min_cycle;Max_cycle;Signal;HPM_P1;HPM_P2
2023/07/12 00:01:12;;;;;;;4.40;2.42;;;;;;;;;;5026959;28;20025;-76
2023/07/12 00:03:38;;;;;;;5.05;2.33;;;;;;;;;;5030950;28;20047;-77
2023/07/12 00:06:10;;;;;;;6.97;2.78;;;;;;;;;;5026024;28;20183;-76
2023/07/12 00:08:36;;;;;;;4.93;2.67;;;;;;;;;;5025725;28;20044;-75
2023/07/12 00:11:02;;;;;;;6.13;2.30;;;;;;;;;;5027714;28;20029;-76
2023/07/12 00:13:28;;;;;;;5.97;2.40;;;;;;;;;;5028877;28;20026;-75
2023/07/12 00:15:56;;;;;;;4.57;2.55;;;;;;;;;;5021879;28;20048;-76
2023/07/12 00:18:24;;;;;;;3.67;2.38;;;;;;;;;;5025254;28;20267;-75
2023/07/12 00:20:51;;;;;;;5.20;2.50;;;;;;;;;;5024624;28;20056;-76
2023/07/12 00:23:18;;;;;;;3.90;2.35;;;;;;;;;;5025016;28;20025;-76
2023/07/12 00:25:45;;;;;;;5.80;2.40;;;;;;;;;;5026012;28;20040;-76
2023/07/12 00:28:21;;;;;;;3.00;2.45;;;;;;;;;;5022881;28;20341;-76
2023/07/12 00:30:47;;;;;;;4.45;2.45;;;;;;;;;;5022780;28;20028;-75
2023/07/12 00:33:13;;;;;;;4.28;2.58;;;;;;;;;;5018634;28;20511;-75
2023/07/12 00:35:40;;;;;;;3.08;2.55;;;;;;;;;;5018692;28;20039;-76
2023/07/12 00:38:13;;;;;;;4.43;2.28;;;;;;;;;;5038019;28;20036;-75
2023/07/12 00:40:47;;;;;;;5.80;3.20;;;;;;;;;;5027709;28;20036;-76
2023/07/12 00:43:16;;;;;;;4.00;2.40;;;;;;;;;;5021452;28;20025;-76
2023/07/12 00:45:48;;;;;;;5.28;2.75;;;;;;;;;;5026557;28;20060;-76
2023/07/12 00:48:14;;;;;;;3.85;2.72;;;;;;;;;;5031087;28;20102;-75
2023/07/12 00:50:41;;;;;;;4.97;2.42;;;;;;;;;;5030323;28;20034;-76
2023/07/12 00:53:23;;;;;;;3.05;2.40;;;;;;;;;;5029154;28;20025;-76
2023/07/12 00:56:06;;;;;;;3.75;2.50;;;;;;;;;;5030360;28;20017;-76
2023/07/12 00:58:34;;;;;;;5.90;2.75;;;;;;;;;;5034553;28;20038;-76
2023/07/12 01:01:02;;;;;;;5.10;2.20;;;;;;;;;;5042470;28;20044;-75
2023/07/12 01:03:30;;;;;;;2.53;2.00;;;;;;;;;;5046769;28;20025;-76
2023/07/12 01:05:56;;;;;;;2.67;2.40;;;;;;;;;;5036148;28;20025;-77
2023/07/12 01:08:22;;;;;;;2.67;2.33;;;;;;;;;;5044238;28;20048;-76
2023/07/12 01:10:49;;;;;;;3.42;2.50;;;;;;;;;;5039079;28;20037;-75
2023/07/12 01:13:20;;;;;;;2.75;2.55;;;;;;;;;;5037631;28;20053;-75
2023/07/12 01:15:46;;;;;;;3.80;2.60;;;;;;;;;;5027473;28;20022;-75
2023/07/12 01:18:13;;;;;;;4.50;2.65;;;;;;;;;;5018913;28;20033;-76
2023/07/12 01:20:40;;;;;;;2.58;2.15;;;;;;;;;;5024954;28;20034;-76
2023/07/12 01:23:06;;;;;;;3.45;2.15;;;;;;;;;;5026768;28;20021;-76
2023/07/12 01:25:40;;;;;;;4.40;2.30;;;;;;;;;;5027560;28;20041;-76
2023/07/12 01:28:07;;;;;;;3.05;2.13;;;;;;;;;;5023189;28;20030;-75
2023/07/12 01:30:33;;;;;;;2.90;1.98;;;;;;;;;;5026808;28;20056;-76
2023/07/12 01:32:59;;;;;;;4.10;2.55;;;;;;;;;;5023376;28;20037;-75
2023/07/12 01:35:25;;;;;;;4.60;2.40;;;;;;;;;;5026557;28;20034;-75
2023/07/12 01:37:52;;;;;;;3.30;2.33;;;;;;;;;;5023955;28;20578;-75
2023/07/12 01:40:18;;;;;;;2.95;2.28;;;;;;;;;;5024916;28;20036;-75
2023/07/12 01:42:44;;;;;;;3.75;2.20;;;;;;;;;;5022946;28;20018;-76
2023/07/12 01:45:11;;;;;;;4.05;2.38;;;;;;;;;;5021831;28;20041;-75
2023/07/12 01:47:37;;;;;;;4.50;2.25;;;;;;;;;;5024441;28;20682;-75
2023/07/12 01:50:03;;;;;;;5.30;3.00;;;;;;;;;;5023927;28;20025;-76
2023/07/12 01:52:29;;;;;;;3.90;2.22;;;;;;;;;;5026884;28;20030;-74
2023/07/12 01:54:55;;;;;;;3.80;2.33;;;;;;;;;;5024591;28;20025;-75
2023/07/12 01:57:21;;;;;;;6.30;3.03;;;;;;;;;;5027185;28;20500;-75
2023/07/12 01:59:47;;;;;;;4.50;2.33;;;;;;;;;;5021094;28;20035;-74
2023/07/12 02:02:13;;;;;;;4.38;2.28;;;;;;;;;;5027843;28;20037;-76
2023/07/12 02:04:40;;;;;;;4.15;2.17;;;;;;;;;;5022334;28;20049;-76
2023/07/12 02:07:06;;;;;;;4.90;2.25;;;;;;;;;;5031715;28;20483;-75
2023/07/12 02:09:36;;;;;;;4.20;2.72;;;;;;;;;;5027640;28;20025;-76
2023/07/12 02:12:03;;;;;;;4.60;2.40;;;;;;;;;;5019298;28;20118;-76
2023/07/12 02:14:29;;;;;;;3.35;2.20;;;;;;;;;;5024811;28;20025;-76
2023/07/12 02:16:55;;;;;;;4.55;2.28;;;;;;;;;;5027718;28;20498;-76
2023/07/12 02:19:21;;;;;;;3.80;2.30;;;;;;;;;;5036179;28;20036;-76
2023/07/12 02:21:47;;;;;;;4.50;2.80;;;;;;;;;;5021118;28;20029;-76
2023/07/12 02:24:13;;;;;;;3.58;2.67;;;;;;;;;;5025494;28;20049;-75
2023/07/12 02:26:42;;;;;;;4.20;2.40;;;;;;;;;;5032526;28;20585;-75
2023/07/12 02:29:09;;;;;;;2.25;2.05;;;;;;;;;;5029759;28;20041;-75
2023/07/12 02:31:35;;;;;;;4.05;2.85;;;;;;;;;;5030122;28;20133;-75
2023/07/12 02:34:01;;;;;;;3.67;2.15;;;;;;;;;;5027159;28;20022;-76
2023/07/12 02:36:27;;;;;;;3.92;2.30;;;;;;;;;;5026270;28;20026;-75
2023/07/12 02:38:54;;;;;;;4.25;2.50;;;;;;;;;;5020577;28;20042;-76
2023/07/12 02:41:20;;;;;;;4.20;2.50;;;;;;;;;;5026394;28;20422;-75
2023/07/12 02:43:47;;;;;;;2.35;2.10;;;;;;;;;;5021894;28;20076;-76
2023/07/12 02:46:13;;;;;;;4.97;2.20;;;;;;;;;;5026576;28;20025;-76
2023/07/12 02:48:39;;;;;;;3.75;2.30;;;;;;;;;;5019791;28;20044;-76
2023/07/12 02:51:05;;;;;;;4.55;2.05;;;;;;;;;;5022766;28;20112;-76
2023/07/12 02:53:36;;;;;;;2.28;2.08;;;;;;;;;;5033828;28;20030;-76
2023/07/12 02:56:03;;;;;;;4.05;2.28;;;;;;;;;;5028741;28;20105;-76
2023/07/12 02:58:29;;;;;;;5.30;2.65;;;;;;;;;;5030190;28;20025;-75
2023/07/12 03:00:57;;;;;;;3.00;2.40;;;;;;;;;;5027761;28;21402;-75
2023/07/12 03:03:23;;;;;;;4.28;2.35;;;;;;;;;;5028741;28;20091;-76
2023/07/12 03:05:49;;;;;;;3.50;2.28;;;;;;;;;;5044724;28;20045;-75
2023/07/12 03:08:16;;;;;;;5.88;2.97;;;;;;;;;;5023457;28;20049;-75
2023/07/12 03:10:42;;;;;;;3.20;2.10;;;;;;;;;;5029931;28;20572;-76
2023/07/12 03:13:09;;;;;;;5.03;2.25;;;;;;;;;;5026515;28;20105;-77
2023/07/12 03:15:38;;;;;;;4.32;2.30;;;;;;;;;;5025004;28;20112;-75
2023/07/12 03:18:04;;;;;;;5.82;2.45;;;;;;;;;;5029024;28;20035;-77
2023/07/12 03:20:33;;;;;;;3.35;2.28;;;;;;;;;;5024646;28;20017;-76
2023/07/12 03:22:59;;;;;;;4.80;2.63;;;;;;;;;;5028715;28;20029;-76
2023/07/12 03:25:25;;;;;;;8.57;3.53;;;;;;;;;;5029450;28;20025;-76
2023/07/12 03:27:52;;;;;;;3.25;2.30;;;;;;;;;;5035824;28;20032;-75
2023/07/12 03:30:18;;;;;;;5.20;2.60;;;;;;;;;;5034173;28;20025;-76
2023/07/12 03:32:44;;;;;;;3.25;2.47;;;;;;;;;;5026693;28;20065;-75
2023/07/12 03:35:10;;;;;;;4.57;2.60;;;;;;;;;;5028581;28;20419;-75
2023/07/12 03:37:36;;;;;;;4.45;2.60;;;;;;;;;;5031923;28;20021;-75
2023/07/12 03:40:03;;;;;;;6.28;2.45;;;;;;;;;;5038497;28;20104;-75
2023/07/12 03:42:29;;;;;;;3.05;2.50;;;;;;;;;;5036750;28;20041;-75
2023/07/12 03:44:55;;;;;;;3.90;2.60;;;;;;;;;;5030911;28;20030;-76
2023/07/12 03:47:21;;;;;;;4.95;2.67;;;;;;;;;;5025057;28;20061;-75
2023/07/12 03:49:48;;;;;;;4.95;3.30;;;;;;;;;;5041381;28;20032;-76
2023/07/12 03:52:14;;;;;;;5.25;2.88;;;;;;;;;;5027528;28;20089;-74
2023/07/12 03:54:41;;;;;;;3.22;2.60;;;;;;;;;;5025927;28;20033;-75
2023/07/12 03:57:07;;;;;;;5.88;2.88;;;;;;;;;;5027017;28;20031;-76
2023/07/12 03:59:33;;;;;;;6.32;2.50;;;;;;;;;;5027537;28;20720;-77
2023/07/12 04:01:59;;;;;;;5.28;3.75;;;;;;;;;;5023370;28;20388;-75
2023/07/12 04:04:26;;;;;;;3.47;2.55;;;;;;;;;;5031843;28;20511;-75
2023/07/12 04:06:52;;;;;;;7.53;2.47;;;;;;;;;;5023183;28;20042;-76
2023/07/12 04:09:18;;;;;;;5.82;2.90;;;;;;;;;;5029843;28;20025;-76
2023/07/12 04:11:44;;;;;;;6.70;3.15;;;;;;;;;;5022079;28;20037;-74
2023/07/12 04:14:10;;;;;;;5.82;2.75;;;;;;;;;;5036091;28;20712;-75
2023/07/12 04:16:36;;;;;;;5.45;2.83;;;;;;;;;;5030361;28;20116;-75
2023/07/12 04:19:02;;;;;;;4.75;2.70;;;;;;;;;;5039290;28;20120;-75
2023/07/12 04:21:29;;;;;;;6.68;3.17;;;;;;;;;;5025167;28;20037;-76
2023/07/12 04:23:55;;;;;;;7.32;2.80;;;;;;;;;;5037287;28;20029;-77
2023/07/12 04:26:21;;;;;;;5.13;3.42;;;;;;;;;;5047555;28;20025;-76
2023/07/12 04:28:49;;;;;;;4.78;3.03;;;;;;;;;;5045445;28;20017;-76
2023/07/12 04:31:16;;;;;;;6.22;3.00;;;;;;;;;;5060722;28;20028;-75
2023/07/12 04:33:42;;;;;;;3.92;3.00;;;;;;;;;;5047184;28;20025;-76
2023/07/12 04:36:10;;;;;;;4.78;2.90;;;;;;;;;;5038609;28;20061;-75
2023/07/12 04:38:38;;;;;;;6.00;3.58;;;;;;;;;;5047803;28;20120;-75
2023/07/12 04:41:05;;;;;;;7.25;3.33;;;;;;;;;;5050087;28;20005;-76
2023/07/12 04:43:31;;;;;;;5.68;2.83;;;;;;;;;;5043367;28;20033;-75
2023/07/12 04:45:58;;;;;;;5.70;3.15;;;;;;;;;;5036119;28;20026;-75
2023/07/12 04:48:24;;;;;;;4.85;3.10;;;;;;;;;;5032368;28;20522;-75
2023/07/12 04:50:51;;;;;;;5.65;3.33;;;;;;;;;;5031340;28;20525;-75
2023/07/12 04:53:18;;;;;;;4.63;3.28;;;;;;;;;;5033161;28;20044;-77
2023/07/12 04:55:44;;;;;;;6.53;3.97;;;;;;;;;;5036608;28;20037;-77
2023/07/12 04:58:10;;;;;;;4.57;3.50;;;;;;;;;;5025930;28;20041;-76
2023/07/12 05:00:36;;;;;;;4.55;3.28;;;;;;;;;;5043836;28;20017;-76
2023/07/12 05:03:03;;;;;;;5.90;3.22;;;;;;;;;;5031124;28;20028;-75
2023/07/12 05:05:29;;;;;;;5.10;3.30;;;;;;;;;;5045352;28;20041;-76
2023/07/12 05:07:55;;;;;;;4.22;3.13;;;;;;;;;;5026413;28;20398;-76
2023/07/12 05:10:21;;;;;;;4.05;3.00;;;;;;;;;;5029879;28;20032;-77
2023/07/12 05:12:48;;;;;;;5.13;3.90;;;;;;;;;;5019252;28;20037;-77
2023/07/12 05:15:14;;;;;;;6.57;3.50;;;;;;;;;;5031749;28;20045;-76
2023/07/12 05:17:40;;;;;;;3.92;3.15;;;;;;;;;;5028710;28;20021;-75
2023/07/12 05:20:08;;;;;;;6.45;3.88;;;;;;;;;;5032296;28;20452;-77
2023/07/12 05:22:35;;;;;;;5.72;3.33;;;;;;;;;;5027843;28;20037;-76
2023/07/12 05:25:01;;;;;;;8.35;4.40;;;;;;;;;;5029028;28;20033;-78
2023/07/12 05:27:27;;;;;;;6.68;3.15;;;;;;;;;;5033511;28;20144;-77
2023/07/12 05:29:54;;;;;;;4.50;3.30;;;;;;;;;;5029168;28;20032;-78
2023/07/12 05:32:20;;;;;;;5.97;3.50;;;;;;;;;;5028797;28;20093;-77
2023/07/12 05:34:46;;;;;;;3.65;3.28;;;;;;;;;;5022105;28;20025;-77
2023/07/12 05:37:13;;;;;;;5.18;3.42;;;;;;;;;;5029944;28;20028;-77
2023/07/12 05:39:40;;;;;;;6.00;3.80;;;;;;;;;;5022327;28;20025;-76
2023/07/12 05:42:06;;;;;;;5.10;3.47;;;;;;;;;;5021177;28;20056;-77
2023/07/12 05:44:33;;;;;;;4.80;3.20;;;;;;;;;;5022273;28;20076;-77
2023/07/12 05:46:59;;;;;;;5.20;3.28;;;;;;;;;;5026043;28;20110;-78
2023/07/12 05:49:25;;;;;;;4.90;3.80;;;;;;;;;;5027204;28;20072;-75
2023/07/12 05:51:52;;;;;;;5.38;3.33;;;;;;;;;;5042517;28;20038;-74
2023/07/12 05:54:18;;;;;;;5.57;3.42;;;;;;;;;;5022759;28;20095;-77
2023/07/12 05:56:44;;;;;;;4.88;3.58;;;;;;;;;;5027028;28;20017;-75
2023/07/12 05:59:10;;;;;;;6.20;3.35;;;;;;;;;;5026666;28;20025;-77
2023/07/12 06:01:38;;;;;;;5.75;3.88;;;;;;;;;;5025322;28;20033;-77
2023/07/12 06:04:04;;;;;;;6.97;3.58;;;;;;;;;;5032592;28;20049;-78
2023/07/12 06:06:30;;;;;;;4.45;3.20;;;;;;;;;;5024179;28;20038;-77
2023/07/12 06:08:56;;;;;;;3.70;3.30;;;;;;;;;;5023837;28;20649;-75
2023/07/12 06:11:22;;;;;;;6.05;3.38;;;;;;;;;;5018267;28;20033;-76
2023/07/12 06:13:48;;;;;;;7.10;4.28;;;;;;;;;;5020509;28;20052;-74
2023/07/12 06:16:14;;;;;;;4.70;3.45;;;;;;;;;;5021095;28;20388;-74
2023/07/12 06:18:41;;;;;;;8.55;3.42;;;;;;;;;;5031459;28;20079;-77
2023/07/12 06:21:08;;;;;;;7.50;3.13;;;;;;;;;;5021207;28;20052;-77
2023/07/12 06:23:34;;;;;;;5.50;3.42;;;;;;;;;;5027018;28;20025;-77
2023/07/12 06:26:01;;;;;;;6.60;3.28;;;;;;;;;;5024019;28;20048;-77
2023/07/12 06:28:28;;;;;;;5.35;3.13;;;;;;;;;;5024472;28;20064;-77
2023/07/12 06:30:54;;;;;;;8.05;3.15;;;;;;;;;;5033721;28;20025;-77
2023/07/12 06:33:21;;;;;;;6.70;3.13;;;;;;;;;;5029726;28;20021;-76
2023/07/12 06:35:47;;;;;;;5.97;3.17;;;;;;;;;;5025085;28;20029;-77
2023/07/12 06:38:13;;;;;;;5.30;2.88;;;;;;;;;;5030883;28;20025;-77
2023/07/12 06:40:39;;;;;;;5.43;2.92;;;;;;;;;;5021295;28;20030;-77
2023/07/12 06:43:06;;;;;;;6.65;2.90;;;;;;;;;;5031849;28;20033;-75
2023/07/12 06:45:32;;;;;;;4.88;2.95;;;;;;;;;;5032304;28;20029;-74
2023/07/12 06:47:58;;;;;;;5.93;3.22;;;;;;;;;;5026907;28;20051;-77
2023/07/12 06:50:24;;;;;;;6.63;3.38;;;;;;;;;;5025469;28;20084;-77
2023/07/12 06:52:51;;;;;;;6.65;2.95;;;;;;;;;;5026115;28;20052;-78
2023/07/12 06:55:17;;;;;;;4.40;3.38;;;;;;;;;;5030278;28;20534;-77
2023/07/12 06:57:43;;;;;;;5.40;3.25;;;;;;;;;;5030444;28;20029;-77
2023/07/12 07:00:10;;;;;;;5.95;3.00;;;;;;;;;;5038162;28;20049;-78
2023/07/12 07:02:36;;;;;;;6.20;3.55;;;;;;;;;;5025618;28;20430;-78
2023/07/12 07:05:02;;;;;;;5.35;3.85;;;;;;;;;;5035052;28;20068;-77
2023/07/12 07:07:29;;;;;;;4.05;2.97;;;;;;;;;;5027365;28;20036;-77
2023/07/12 07:09:55;;;;;;;4.07;2.65;;;;;;;;;;5033498;28;20027;-78
2023/07/12 07:12:21;;;;;;;5.60;2.75;;;;;;;;;;5023156;28;20025;-77
2023/07/12 07:14:47;;;;;;;6.72;2.67;;;;;;;;;;5046549;28;20059;-75
2023/07/12 07:17:14;;;;;;;5.45;3.25;;;;;;;;;;5033200;28;20536;-75
2023/07/12 07:19:40;;;;;;;5.60;2.70;;;;;;;;;;5035432;28;20117;-75
2023/07/12 07:22:06;;;;;;;5.03;2.50;;;;;;;;;;5024645;28;20060;-75
2023/07/12 07:24:32;;;;;;;6.88;2.83;;;;;;;;;;5028554;28;20030;-78
2023/07/12 07:26:59;;;;;;;7.40;3.28;;;;;;;;;;5032696;28;20030;-75
2023/07/12 07:29:25;;;;;;;6.88;2.33;;;;;;;;;;5032336;28;20025;-75
2023/07/12 07:31:51;;;;;;;2.88;2.50;;;;;;;;;;5028672;28;20033;-76
2023/07/12 07:34:18;;;;;;;4.78;2.50;;;;;;;;;;5032754;28;20472;-75
2023/07/12 07:36:44;;;;;;;5.25;2.40;;;;;;;;;;5028317;28;20029;-76
2023/07/12 07:39:10;;;;;;;5.25;2.67;;;;;;;;;;5026162;28;20030;-77
2023/07/12 07:41:36;;;;;;;7.50;2.50;;;;;;;;;;5047865;28;20033;-77
2023/07/12 07:44:02;;;;;;;4.03;2.35;;;;;;;;;;5041602;28;20014;-75
2023/07/12 07:46:28;;;;;;;9.68;2.92;;;;;;;;;;5039168;28;20033;-75
2023/07/12 07:48:55;;;;;;;7.10;2.60;;;;;;;;;;5032980;28;20094;-76
2023/07/12 07:51:21;;;;;;;6.05;2.55;;;;;;;;;;5031303;28;20526;-75
2023/07/12 07:53:47;;;;;;;6.25;2.80;;;;;;;;;;5028599;28;20052;-78
2023/07/12 07:56:13;;;;;;;8.18;2.95;;;;;;;;;;5026707;28;20029;-76
2023/07/12 07:58:40;;;;;;;6.70;2.83;;;;;;;;;;5036999;28;20035;-78
2023/07/12 08:01:06;;;;;;;7.07;2.55;;;;;;;;;;5029748;28;20025;-77
2023/07/12 08:03:34;;;;;;;7.03;2.90;;;;;;;;;;5027121;28;20036;-77
2023/07/12 08:06:05;;;;;;;8.20;2.58;;;;;;;;;;5028848;28;20037;-77
2023/07/12 08:08:33;;;;;;;6.50;2.50;;;;;;;;;;5041878;28;20412;-77
2023/07/12 08:10:59;;;;;;;6.78;2.47;;;;;;;;;;5023435;28;20046;-77
2023/07/12 08:13:25;;;;;;;3.92;2.50;;;;;;;;;;5028341;28;20037;-77
2023/07/12 08:15:51;;;;;;;6.78;2.85;;;;;;;;;;5025439;28;20021;-77
2023/07/12 08:18:17;;;;;;;5.82;2.13;;;;;;;;;;5039124;28;20021;-77
2023/07/12 08:20:43;;;;;;;9.20;2.63;;;;;;;;;;5040487;28;20022;-78
2023/07/12 08:23:10;;;;;;;5.22;2.70;;;;;;;;;;5034671;28;20030;-77
2023/07/12 08:25:36;;;;;;;2.95;2.40;;;;;;;;;;5038494;28;20045;-78
2023/07/12 08:28:02;;;;;;;7.93;2.92;;;;;;;;;;5034957;28;20025;-78
2023/07/12 08:30:28;;;;;;;5.18;2.63;;;;;;;;;;5027759;28;20087;-79
2023/07/12 08:32:54;;;;;;;7.18;2.40;;;;;;;;;;5020372;28;20063;-78
2023/07/12 08:35:20;;;;;;;4.32;2.63;;;;;;;;;;5023972;28;20160;-77
2023/07/12 08:37:46;;;;;;;7.15;2.40;;;;;;;;;;5026691;28;20119;-78
2023/07/12 08:40:14;;;;;;;3.35;2.28;;;;;;;;;;5029932;28;20034;-78
2023/07/12 08:42:42;;;;;;;4.47;2.30;;;;;;;;;;5033428;28;20026;-77
2023/07/12 08:45:23;;;;;;;5.18;2.67;;;;;;;;;;5052300;28;20025;-77
2023/07/12 08:47:51;;;;;;;7.50;2.55;;;;;;;;;;5031193;28;20029;-76
2023/07/12 08:50:18;;;;;;;8.23;2.78;;;;;;;;;;5052385;28;20120;-76
2023/07/12 08:52:45;;;;;;;5.45;2.55;;;;;;;;;;5037168;28;20199;-75
2023/07/12 08:55:14;;;;;;;10.63;4.60;;;;;;;;;;5032158;28;20036;-75
2023/07/12 08:57:41;;;;;;;11.25;2.45;;;;;;;;;;5028593;28;20029;-75
2023/07/12 09:00:14;;;;;;;5.68;2.38;;;;;;;;;;5036842;28;20049;-74
2023/07/12 09:02:40;;;;;;;7.15;2.45;;;;;;;;;;5033988;28;20044;-76
2023/07/12 09:05:21;;;;;;;9.75;3.28;;;;;;;;;;5032870;28;20407;-75
2023/07/12 09:08:00;;;;;;;3.55;1.88;;;;;;;;;;5026982;28;20072;-75
2023/07/12 09:10:41;;;;;;;4.30;1.98;;;;;;;;;;5032216;28;20026;-76
2023/07/12 09:13:10;;;;;;;5.78;2.10;;;;;;;;;;5033115;28;20379;-77
2023/07/12 09:15:43;;;;;;;3.95;1.98;;;;;;;;;;5026246;28;20507;-79
2023/07/12 09:18:20;;;;;;;4.78;2.38;;;;;;;;;;5029153;28;20810;-78
2023/07/12 09:20:50;;;;;;;6.82;3.05;;;;;;;;;;5032636;28;20040;-76
2023/07/12 09:23:17;;;;;;;5.38;2.20;;;;;;;;;;5034422;28;20318;-78
2023/07/12 09:25:47;;;;;;;5.28;3.08;;;;;;;;;;5036740;28;20037;-77
2023/07/12 09:28:17;;;;;;;2.35;2.10;;;;;;;;;;5029886;28;20032;-77
2023/07/12 09:30:43;;;;;;;2.63;2.00;;;;;;;;;;5032224;28;20029;-77
2023/07/12 09:33:17;;;;;;;3.03;2.10;;;;;;;;;;5030076;28;20220;-77
2023/07/12 09:35:47;;;;;;;2.65;1.95;;;;;;;;;;5022523;28;20369;-77
2023/07/12 09:38:24;;;;;;;2.88;2.17;;;;;;;;;;5035253;28;20024;-77
2023/07/12 09:40:51;;;;;;;3.83;1.92;;;;;;;;;;5032589;28;20029;-75
2023/07/12 09:43:19;;;;;;;3.00;2.65;;;;;;;;;;5024164;28;20030;-76
2023/07/12 09:45:56;;;;;;;3.38;2.00;;;;;;;;;;5027427;28;20091;-76
2023/07/12 09:48:26;;;;;;;6.63;1.90;;;;;;;;;;5028754;28;20063;-75
2023/07/12 09:51:11;;;;;;;3.45;2.00;;;;;;;;;;5035513;28;20065;-76
2023/07/12 09:53:47;;;;;;;2.20;2.00;;;;;;;;;;5028495;28;20028;-76
2023/07/12 09:56:29;;;;;;;2.90;1.90;;;;;;;;;;5035441;28;20472;-75
2023/07/12 09:59:03;;;;;;;2.40;1.80;;;;;;;;;;5020596;28;20030;-76
2023/07/12 10:01:29;;;;;;;4.55;2.38;;;;;;;;;;5029401;28;20057;-77
2023/07/12 10:03:57;;;;;;;3.58;1.92;;;;;;;;;;5030711;28;20072;-74
2023/07/12 10:06:31;;;;;;;4.05;1.90;;;;;;;;;;5029820;28;20108;-77
2023/07/12 10:09:20;;;;;;;2.75;1.80;;;;;;;;;;5029660;28;20033;-76
2023/07/12 10:12:02;;;;;;;2.60;2.10;;;;;;;;;;5022734;28;20542;-75
2023/07/12 10:14:32;;;;;;;3.95;1.95;;;;;;;;;;5028912;28;20018;-75
2023/07/12 10:16:58;;;;;;;3.30;1.40;;;;;;;;;;5025511;28;20017;-75
2023/07/12 10:19:26;;;;;;;3.97;1.70;;;;;;;;;;5031970;28;20033;-76
2023/07/12 10:21:54;;;;;;;3.33;2.55;;;;;;;;;;5037065;28;20402;-76
2023/07/12 10:24:21;;;;;;;3.53;1.70;;;;;;;;;;5035140;28;20041;-75
2023/07/12 10:26:48;;;;;;;2.97;1.58;;;;;;;;;;5037213;28;20751;-75
2023/07/12 10:29:22;;;;;;;2.25;1.85;;;;;;;;;;5024576;28;20028;-76
2023/07/12 10:31:55;;;;;;;3.25;1.67;;;;;;;;;;5036179;28;20017;-76
2023/07/12 10:34:21;;;;;;;2.28;1.70;;;;;;;;;;5033315;28;20119;-76
2023/07/12 10:36:50;;;;;;;2.55;1.80;;;;;;;;;;5018717;28;20032;-78
2023/07/12 10:39:16;;;;;;;3.85;2.08;;;;;;;;;;5020834;28;20140;-76
2023/07/12 10:41:55;;;;;;;2.97;2.00;;;;;;;;;;5032429;28;20037;-75
2023/07/12 10:44:24;;;;;;;3.17;1.50;;;;;;;;;;5027460;28;20039;-77
2023/07/12 10:46:55;;;;;;;2.15;1.70;;;;;;;;;;5024273;28;20044;-75
2023/07/12 10:49:40;;;;;;;3.28;1.70;;;;;;;;;;5037852;28;20042;-75
2023/07/12 10:52:12;;;;;;;3.35;1.88;;;;;;;;;;5033032;28;20538;-76
2023/07/12 10:54:44;;;;;;;2.38;2.03;;;;;;;;;;5026272;28;20048;-76
2023/07/12 10:57:19;;;;;;;2.42;1.70;;;;;;;;;;5039912;28;20076;-75
2023/07/12 10:59:45;;;;;;;2.83;1.60;;;;;;;;;;5034525;28;20059;-76
2023/07/12 11:02:22;;;;;;;2.25;1.38;;;;;;;;;;5044144;28;20029;-77
2023/07/12 11:04:49;;;;;;;2.53;1.73;;;;;;;;;;5043747;28;20124;-75
2023/07/12 11:07:15;;;;;;;2.03;1.73;;;;;;;;;;5045546;28;20029;-76
2023/07/12 11:12:13;;;;;;;3.45;1.50;;;;;;;;;;5039499;28;20036;-77
2023/07/12 11:14:39;;;;;;;2.50;1.92;;;;;;;;;;5057808;28;20033;-78
2023/07/12 11:17:11;;;;;;;3.55;1.67;;;;;;;;;;5036239;28;20021;-78
2023/07/12 11:19:40;;;;;;;3.30;1.70;;;;;;;;;;5026181;28;20033;-77
2023/07/12 11:22:44;;;;;;;3.03;1.77;;;;;;;;;;5039277;28;20026;-79
2023/07/12 11:25:22;;;;;;;3.05;1.90;;;;;;;;;;5038148;28;20057;-75
2023/07/12 11:27:57;;;;;;;2.42;1.90;;;;;;;;;;5026723;28;20037;-77
2023/07/12 11:30:26;;;;;;;4.53;1.70;;;;;;;;;;5035418;28;20033;-74
2023/07/12 11:33:16;;;;;;;2.17;1.55;;;;;;;;;;5030527;28;20030;-77
2023/07/12 11:35:57;;;;;;;3.50;1.60;;;;;;;;;;5033763;28;20030;-78
2023/07/12 11:38:25;;;;;;;3.45;1.60;;;;;;;;;;5038194;28;20048;-76
2023/07/12 11:40:53;;;;;;;1.77;1.67;;;;;;;;;;5033131;28;20025;-76
2023/07/12 11:43:26;;;;;;;3.05;1.70;;;;;;;;;;5025517;28;20034;-77
2023/07/12 11:45:56;;;;;;;2.03;1.60;;;;;;;;;;5024451;28;20029;-77
2023/07/12 11:48:23;;;;;;;6.68;1.83;;;;;;;;;;5025844;28;20447;-78
2023/07/12 11:50:50;;;;;;;4.85;2.95;;;;;;;;;;5028007;28;20434;-77
2023/07/12 11:53:17;;;;;;;1.60;1.50;;;;;;;;;;5029663;28;20033;-77
2023/07/12 11:55:43;;;;;;;2.40;2.17;;;;;;;;;;5020350;28;20084;-76
2023/07/12 11:58:20;;;;;;;2.17;1.60;;;;;;;;;;5022959;28;20028;-78
2023/07/12 12:00:47;;;;;;;2.42;1.40;;;;;;;;;;5035805;28;20124;-77
2023/07/12 12:03:14;;;;;;;2.28;1.48;;;;;;;;;;5025006;28;20030;-77
2023/07/12 12:05:41;;;;;;;1.92;1.50;;;;;;;;;;5032229;28;20531;-78
2023/07/12 12:08:11;;;;;;;1.55;1.33;;;;;;;;;;5036248;28;20021;-76
2023/07/12 12:10:40;;;;;;;2.40;1.60;;;;;;;;;;5029057;28;20033;-76
2023/07/12 12:13:20;;;;;;;1.58;1.50;;;;;;;;;;5026716;28;20645;-77
2023/07/12 12:15:51;;;;;;;2.13;1.70;;;;;;;;;;5028218;28;20210;-76
2023/07/12 12:18:18;;;;;;;1.80;1.70;;;;;;;;;;5055247;28;20075;-76
2023/07/12 12:21:11;;;;;;;3.85;1.83;;;;;;;;;;5024306;28;20235;-76
2023/07/12 12:23:39;;;;;;;2.78;1.88;;;;;;;;;;5026362;28;20496;-76
2023/07/12 12:26:14;;;;;;;2.20;1.70;;;;;;;;;;5026704;28;20034;-76
2023/07/12 12:28:40;;;;;;;2.55;1.80;;;;;;;;;;5020276;28;20626;-76
2023/07/12 12:31:15;;;;;;;2.85;1.70;;;;;;;;;;5028674;28;20025;-76
2023/07/12 12:34:07;;;;;;;1.52;1.42;;;;;;;;;;5020938;28;20029;-77
2023/07/12 12:36:34;;;;;;;1.95;1.60;;;;;;;;;;5021046;28;20033;-76
2023/07/12 12:39:16;;;;;;;2.80;1.67;;;;;;;;;;5023366;28;20025;-77
2023/07/12 12:41:49;;;;;;;2.17;1.88;;;;;;;;;;5017485;28;20037;-76
2023/07/12 12:44:17;;;;;;;1.85;1.60;;;;;;;;;;5022878;28;20487;-75
2023/07/12 12:46:44;;;;;;;2.83;1.80;;;;;;;;;;5025505;28;20123;-76
2023/07/12 12:49:17;;;;;;;4.22;1.55;;;;;;;;;;5026067;28;20334;-75
2023/07/12 12:51:44;;;;;;;3.05;1.30;;;;;;;;;;5021731;28;20072;-76
2023/07/12 12:54:10;;;;;;;1.50;1.40;;;;;;;;;;5029120;28;20239;-77
2023/07/12 12:56:36;;;;;;;1.65;1.50;;;;;;;;;;5026615;28;20165;-77
2023/07/12 12:59:03;;;;;;;1.65;1.40;;;;;;;;;;5027780;28;20025;-76
2023/07/12 13:01:29;;;;;;;4.57;1.65;;;;;;;;;;5026670;28;20029;-76
2023/07/12 13:03:56;;;;;;;2.50;1.50;;;;;;;;;;5021852;28;20042;-77
2023/07/12 13:06:24;;;;;;;3.78;2.15;;;;;;;;;;5023618;28;20573;-77
2023/07/12 13:08:50;;;;;;;2.72;1.55;;;;;;;;;;5028465;28;20471;-77
2023/07/12 13:11:17;;;;;;;1.50;1.40;;;;;;;;;;5027049;28;20033;-76
2023/07/12 13:13:43;;;;;;;1.45;1.35;;;;;;;;;;5025606;28;20036;-76
2023/07/12 13:16:16;;;;;;;1.50;1.40;;;;;;;;;;5025940;28;20021;-77
2023/07/12 13:18:43;;;;;;;2.13;1.48;;;;;;;;;;5025775;28;20028;-77
2023/07/12 13:21:22;;;;;;;2.92;1.52;;;;;;;;;;5025848;28;20796;-77
2023/07/12 13:23:48;;;;;;;1.88;1.60;;;;;;;;;;5019819;28;20044;-76
2023/07/12 13:26:16;;;;;;;2.83;1.60;;;;;;;;;;5022976;28;20030;-77
2023/07/12 13:28:42;;;;;;;1.60;1.50;;;;;;;;;;5026905;28;20030;-76
2023/07/12 13:31:18;;;;;;;1.75;1.65;;;;;;;;;;5024588;28;20052;-77
2023/07/12 13:33:45;;;;;;;2.55;1.33;;;;;;;;;;5021988;28;20284;-77
2023/07/12 13:36:23;;;;;;;3.83;1.50;;;;;;;;;;5022423;28;20031;-76
2023/07/12 13:38:49;;;;;;;1.67;1.50;;;;;;;;;;5026995;28;20026;-77
2023/07/12 13:41:15;;;;;;;1.73;1.63;;;;;;;;;;5031266;28;20036;-76
2023/07/12 13:43:42;;;;;;;2.15;1.48;;;;;;;;;;5027520;28;20036;-76
2023/07/12 13:46:13;;;;;;;2.13;1.60;;;;;;;;;;5010578;28;20040;-77
2023/07/12 13:48:40;;;;;;;2.03;1.48;;;;;;;;;;5022973;28;20025;-77
2023/07/12 13:51:16;;;;;;;3.03;1.70;;;;;;;;;;5021281;28;20053;-78
2023/07/12 13:53:42;;;;;;;2.58;1.80;;;;;;;;;;5024111;28;20026;-76
2023/07/12 13:56:08;;;;;;;2.85;1.50;;;;;;;;;;5035745;28;20021;-77
2023/07/12 13:58:35;;;;;;;2.65;1.75;;;;;;;;;;5030268;28;20036;-77
2023/07/12 14:01:01;;;;;;;4.72;1.65;;;;;;;;;;5028669;28;20991;-76
2023/07/12 14:03:27;;;;;;;3.60;1.90;;;;;;;;;;5029163;28;20033;-77
2023/07/12 14:05:53;;;;;;;1.70;1.60;;;;;;;;;;5023041;28;20061;-77
2023/07/12 14:08:19;;;;;;;3.05;1.70;;;;;;;;;;5024671;28;20026;-76
2023/07/12 14:10:46;;;;;;;3.53;1.88;;;;;;;;;;5026133;28;20044;-76
2023/07/12 14:13:19;;;;;;;2.28;2.03;;;;;;;;;;5040276;28;20796;-77
2023/07/12 14:15:45;;;;;;;3.28;2.10;;;;;;;;;;5032888;28;20041;-77
2023/07/12 14:18:11;;;;;;;3.20;1.70;;;;;;;;;;5032739;28;20029;-78
2023/07/12 14:20:38;;;;;;;3.42;1.85;;;;;;;;;;5035412;28;20413;-76
2023/07/12 14:23:11;;;;;;;2.58;1.80;;;;;;;;;;5032123;28;20211;-78
2023/07/12 14:25:38;;;;;;;1.55;1.45;;;;;;;;;;5035897;28;20059;-76
2023/07/12 14:28:08;;;;;;;2.08;1.70;;;;;;;;;;5037408;28;20018;-76
2023/07/12 14:30:35;;;;;;;3.35;1.90;;;;;;;;;;5041093;28;20033;-76
2023/07/12 14:33:01;;;;;;;3.58;1.52;;;;;;;;;;5034971;28;20641;-77
2023/07/12 14:35:27;;;;;;;5.13;1.60;;;;;;;;;;5040279;28;20097;-77
2023/07/12 14:37:54;;;;;;;1.63;1.52;;;;;;;;;;5025417;28;20120;-77
2023/07/12 14:40:21;;;;;;;1.50;1.40;;;;;;;;;;5029963;28;20396;-76
2023/07/12 14:42:47;;;;;;;1.50;1.40;;;;;;;;;;5036462;28;20025;-79
2023/07/12 14:45:16;;;;;;;1.50;1.40;;;;;;;;;;5019282;28;20030;-77
2023/07/12 14:47:42;;;;;;;1.55;1.45;;;;;;;;;;5026536;28;20068;-78
2023/07/12 14:50:09;;;;;;;2.33;1.52;;;;;;;;;;5026006;28;20575;-77
2023/07/12 14:52:35;;;;;;;1.60;1.50;;;;;;;;;;5027289;28;20029;-77